Time;durP1;ratioP1;P1;durP2;ratioP2;P2;SDS_P1;SDS_P2;PMS_P1;PMS_P2;Temp;Humidity;BMP_temperature;BMP_pressure;BME280_temperature;BME280_humidity;BME280_pressure;Samples;Min_cycle;Max_cycle;Signal;HPM_P1;HPM_P2
2021/05/17 00:02:22;;;;;;;7.53;4.75;;;17.30;94.50;;;;;;5077642;28;20024;-77
2021/05/17 00:04:49;;;;;;;6.85;4.65;;;17.20;94.50;;;;;;5059566;28;20451;-76
2021/05/17 00:07:15;;;;;;;5.95;3.83;;;17.30;94.60;;;;;;5076624;28;20031;-76
2021/05/17 00:09:41;;;;;;;6.80;4.35;;;17.20;94.60;;;;;;5059142;28;20425;-76
2021/05/17 00:12:08;;;;;;;5.22;3.63;;;17.20;94.70;;;;;;5076818;28;20016;-76
2021/05/17 00:14:35;;;;;;;7.00;3.95;;;17.20;94.80;;;;;;5059128;28;20073;-77
2021/05/17 00:17:01;;;;;;;5.57;4.10;;;17.20;94.80;;;;;;5077049;28;20028;-77
2021/05/17 00:19:27;;;;;;;6.50;3.70;;;17.20;94.90;;;;;;5077155;28;20381;-77
2021/05/17 00:21:53;;;;;;;6.32;3.50;;;17.10;94.80;;;;;;5075460;28;20154;-77
2021/05/17 00:24:19;;;;;;;4.78;3.65;;;17.10;94.80;;;;;;5076754;28;20021;-77
2021/05/17 00:26:46;;;;;;;4.95;3.45;;;17.10;94.90;;;;;;5076850;28;20458;-77
2021/05/17 00:29:13;;;;;;;5.88;3.70;;;17.20;94.90;;;;;;5058972;28;20032;-77
2021/05/17 00:31:40;;;;;;;4.20;3.58;;;17.10;94.80;;;;;;5076934;28;20078;-78
2021/05/17 00:34:08;;;;;;;5.85;4.13;;;17.10;94.90;;;;;;5076761;28;20016;-84
2021/05/17 00:36:36;;;;;;;7.25;4.32;;;17.10;95.20;;;;;;5075351;28;20024;-82
2021/05/17 00:39:07;;;;;;;5.00;3.88;;;17.10;94.90;;;;;;5058814;28;20374;-82
2021/05/17 00:41:33;;;;;;;8.05;4.22;;;17.10;95.00;;;;;;5058714;28;20020;-80
2021/05/17 00:43:58;;;;;;;5.68;4.15;;;17.00;95.00;;;;;;5058759;28;20024;-86
2021/05/17 00:46:25;;;;;;;5.85;3.80;;;17.00;95.20;;;;;;5058642;28;20031;-81
2021/05/17 00:48:52;;;;;;;6.15;3.58;;;17.00;95.20;;;;;;5076795;28;20104;-87
2021/05/17 00:51:19;;;;;;;5.85;3.55;;;17.00;95.30;;;;;;5057835;28;20111;-84
2021/05/17 00:53:45;;;;;;;5.43;3.70;;;17.10;95.30;;;;;;5076888;28;20021;-86
2021/05/17 00:56:12;;;;;;;5.55;3.72;;;17.10;95.30;;;;;;5058839;28;20028;-87
2021/05/17 00:58:38;;;;;;;5.72;3.28;;;17.00;95.40;;;;;;5058545;28;20025;-86
2021/05/17 01:01:06;;;;;;;2.97;2.75;;;17.00;95.40;;;;;;5057582;28;20025;-83
2021/05/17 01:03:32;;;;;;;4.63;3.40;;;17.00;95.40;;;;;;5058409;28;20025;-83
2021/05/17 01:06:00;;;;;;;3.33;2.78;;;17.10;95.50;;;;;;5074829;28;20028;-83
2021/05/17 01:08:36;;;;;;;3.65;3.10;;;17.00;95.50;;;;;;5076167;28;20092;-78
2021/05/17 01:11:04;;;;;;;4.03;3.00;;;17.10;95.50;;;;;;5076179;28;20082;-83
2021/05/17 01:13:31;;;;;;;6.00;3.55;;;17.00;95.40;;;;;;5076143;28;20066;-77
2021/05/17 01:15:59;;;;;;;9.68;3.83;;;17.00;95.60;;;;;;5057982;28;20024;-77
2021/05/17 01:18:27;;;;;;;6.93;3.92;;;17.00;96.10;;;;;;5057836;28;20025;-79
2021/05/17 01:20:55;;;;;;;6.85;4.43;;;16.90;96.60;;;;;;5056636;28;20123;-80
2021/05/17 01:25:51;;;;;;;5.20;3.83;;;16.50;97.30;;;;;;5076441;28;20082;-79
2021/05/17 01:28:25;;;;;;;5.68;4.50;;;16.40;97.50;;;;;;5075802;28;20103;-80
2021/05/17 01:30:57;;;;;;;6.57;4.45;;;16.40;98.00;;;;;;5076135;28;20051;-80
2021/05/17 01:33:23;;;;;;;4.30;3.90;;;16.30;98.00;;;;;;5075697;28;20543;-79
2021/05/17 01:35:49;;;;;;;5.25;4.40;;;16.30;98.00;;;;;;5075042;28;20477;-79
2021/05/17 01:38:17;;;;;;;9.13;5.30;;;16.30;98.10;;;;;;5075600;28;20024;-78
2021/05/17 01:40:45;;;;;;;12.32;5.53;;;16.30;98.30;;;;;;5076240;28;20044;-80
2021/05/17 01:43:13;;;;;;;9.65;5.18;;;16.20;98.30;;;;;;5075466;28;20116;-82
2021/05/17 01:45:40;;;;;;;6.03;5.20;;;16.20;98.50;;;;;;5075501;28;20021;-82
2021/05/17 01:48:13;;;;;;;9.40;4.60;;;16.20;98.80;;;;;;5057641;28;20024;-81
2021/05/17 01:50:39;;;;;;;6.50;4.30;;;16.20;99.10;;;;;;5056695;28;20090;-85
2021/05/17 01:53:05;;;;;;;10.93;5.72;;;16.20;98.80;;;;;;5075536;28;20017;-84
2021/05/17 01:55:32;;;;;;;15.00;6.90;;;16.20;98.90;;;;;;5075321;28;20024;-89
2021/05/17 01:58:09;;;;;;;17.00;7.65;;;16.20;99.20;;;;;;5057258;28;20032;-83
2021/05/17 02:00:36;;;;;;;10.57;7.50;;;16.10;99.80;;;;;;5075245;28;20020;-77
2021/05/17 02:03:02;;;;;;;11.35;8.02;;;15.90;99.90;;;;;;5057207;28;20630;-81
2021/05/17 02:05:28;;;;;;;8.40;7.00;;;15.80;99.90;;;;;;5073717;28;20115;-85
2021/05/17 02:07:54;;;;;;;8.48;6.65;;;15.60;99.90;;;;;;5056668;28;20086;-85
2021/05/17 02:10:21;;;;;;;7.82;7.03;;;15.60;99.90;;;;;;5074862;28;20481;-80
2021/05/17 02:12:48;;;;;;;8.00;7.10;;;15.50;99.90;;;;;;5074918;28;20370;-80
2021/05/17 02:15:17;;;;;;;7.88;6.97;;;15.40;99.90;;;;;;5056902;28;20036;-81
2021/05/17 02:17:43;;;;;;;9.30;8.32;;;15.40;99.90;;;;;;5056966;28;20036;-81
2021/05/17 02:20:15;;;;;;;10.73;8.00;;;15.40;99.90;;;;;;5073772;28;20020;-81
2021/05/17 02:22:43;;;;;;;8.45;7.60;;;15.40;99.90;;;;;;5074928;28;20086;-81
2021/05/17 02:25:11;;;;;;;8.07;7.28;;;15.40;99.90;;;;;;5074543;28;20099;-82
2021/05/17 02:27:41;;;;;;;10.20;7.22;;;15.30;99.90;;;;;;5074614;28;20413;-83
2021/05/17 02:30:12;;;;;;;8.93;7.85;;;15.40;99.90;;;;;;5056785;28;20082;-85
2021/05/17 02:32:38;;;;;;;;;;;15.40;99.90;;;;;;5075060;28;20124;-83
2021/05/17 02:35:05;;;;;;;13.80;10.02;;;15.30;99.90;;;;;;5055695;28;19991;-86
2021/05/17 02:37:33;;;;;;;18.38;11.60;;;15.30;99.90;;;;;;5056583;28;20032;-80
2021/05/17 02:39:59;;;;;;;11.90;10.57;;;15.30;99.90;;;;;;5056734;28;20020;-89
2021/05/17 02:42:27;;;;;;;12.55;9.52;;;15.30;99.90;;;;;;5074191;28;20025;-86
2021/05/17 02:44:54;;;;;;;11.05;9.90;;;15.30;99.90;;;;;;5074685;28;20009;-85
2021/05/17 02:47:20;;;;;;;10.65;9.32;;;15.30;99.90;;;;;;5056394;28;20882;-84
2021/05/17 02:49:46;;;;;;;9.63;8.63;;;15.30;99.90;;;;;;5055472;28;20107;-79
2021/05/17 02:52:12;;;;;;;11.77;9.43;;;15.20;99.90;;;;;;5074018;28;20032;-83
2021/05/17 02:54:41;;;;;;;12.45;9.82;;;15.20;99.90;;;;;;5073736;28;20025;-86
2021/05/17 02:57:15;;;;;;;11.73;10.05;;;15.20;99.90;;;;;;5074095;28;20667;-80
2021/05/17 03:00:01;;;;;;;14.25;11.45;;;15.10;99.90;;;;;;5073966;28;20025;-76
2021/05/17 03:02:30;;;;;;;12.38;10.52;;;15.10;99.90;;;;;;5056173;28;20095;-86
2021/05/17 03:04:58;;;;;;;14.10;11.13;;;15.10;99.90;;;;;;5073135;28;20016;-86
2021/05/17 03:07:30;;;;;;;14.80;11.55;;;15.10;99.90;;;;;;5055921;28;20036;-82
2021/05/17 03:09:57;;;;;;;14.18;11.48;;;15.10;99.90;;;;;;5055734;28;20041;-85
2021/05/17 03:12:24;;;;;;;13.70;11.20;;;15.20;99.90;;;;;;5055999;28;20385;-86
2021/05/17 03:14:51;;;;;;;12.05;10.82;;;15.20;99.90;;;;;;5052727;28;20017;-79
2021/05/17 03:17:18;;;;;;;12.10;10.30;;;15.30;99.90;;;;;;5052653;28;20074;-86
2021/05/17 03:19:45;;;;;;;12.63;11.32;;;15.30;99.90;;;;;;5053427;28;20033;-87
2021/05/17 03:22:12;;;;;;;13.52;10.02;;;15.30;99.90;;;;;;5056101;28;20371;-82
2021/05/17 03:24:41;;;;;;;11.38;10.18;;;15.30;99.90;;;;;;5073062;28;20526;-83
2021/05/17 03:27:30;;;;;;;13.15;9.73;;;15.40;99.90;;;;;;5074039;28;20029;-81
2021/05/17 03:29:56;;;;;;;11.00;9.85;;;15.40;99.90;;;;;;5055761;28;20074;-87
2021/05/17 03:32:24;;;;;;;10.63;9.15;;;15.40;99.90;;;;;;5055415;28;20035;-83
2021/05/17 03:34:50;;;;;;;11.45;10.07;;;15.40;99.90;;;;;;5072976;28;20039;-86
2021/05/17 03:37:16;;;;;;;12.07;9.85;;;15.40;99.90;;;;;;5055926;28;20420;-86
2021/05/17 03:39:46;;;;;;;10.32;9.30;;;15.30;99.90;;;;;;5073829;28;20032;-87
2021/05/17 03:42:12;;;;;;;9.98;8.98;;;15.40;99.90;;;;;;5073929;28;20104;-84
2021/05/17 03:44:38;;;;;;;10.82;8.18;;;15.40;99.90;;;;;;5055729;28;20466;-85
2021/05/17 03:47:03;;;;;;;12.23;9.32;;;15.40;99.90;;;;;;5073722;28;20029;-85
2021/05/17 03:49:29;;;;;;;10.02;8.95;;;15.50;99.90;;;;;;5054230;28;20062;-86
2021/05/17 03:51:55;;;;;;;11.18;8.82;;;15.40;99.90;;;;;;5055651;28;20024;-86
2021/05/17 03:54:20;;;;;;;11.13;8.80;;;15.40;99.90;;;;;;5055737;28;20016;-84
2021/05/17 03:56:46;;;;;;;14.48;8.15;;;15.50;99.90;;;;;;5072863;28;20063;-87
2021/05/17 03:59:15;;;;;;;10.48;8.75;;;15.50;99.90;;;;;;5054959;28;20033;-86
2021/05/17 04:01:41;;;;;;;11.60;8.32;;;15.50;99.90;;;;;;5053865;28;20021;-86
2021/05/17 04:04:07;;;;;;;10.85;8.55;;;15.50;99.90;;;;;;5066073;28;20097;-86
2021/05/17 04:14:30;;;;;;;20.67;18.58;;;15.60;99.90;;;;;;5073284;28;20058;-79
2021/05/17 04:16:55;;;;;;;13.18;11.57;;;15.60;99.90;;;;;;5072984;28;20427;-79
2021/05/17 04:19:26;;;;;;;9.75;8.85;;;15.60;99.90;;;;;;5070664;28;20025;-79
2021/05/17 04:21:51;;;;;;;10.05;8.88;;;15.50;99.90;;;;;;5054326;28;20075;-79
2021/05/17 04:24:17;;;;;;;9.93;8.05;;;15.50;99.90;;;;;;5054716;28;20059;-82
2021/05/17 04:26:42;;;;;;;8.98;8.13;;;15.50;99.90;;;;;;5054948;28;20020;-84
2021/05/17 04:29:08;;;;;;;9.10;8.20;;;15.50;99.90;;;;;;5055241;28;20021;-83
2021/05/17 04:31:34;;;;;;;10.02;9.02;;;15.50;99.90;;;;;;5056897;28;20017;-86
2021/05/17 04:33:59;;;;;;;10.23;9.15;;;15.60;99.90;;;;;;5050528;28;20025;-87
2021/05/17 04:36:28;;;;;;;10.98;9.82;;;15.70;99.90;;;;;;5038949;28;20029;-81
2021/05/17 04:38:53;;;;;;;10.55;9.45;;;15.60;99.90;;;;;;5056730;28;20104;-83
2021/05/17 04:41:19;;;;;;;12.10;10.00;;;15.70;99.90;;;;;;5056679;28;20109;-80
2021/05/17 04:43:45;;;;;;;10.57;9.23;;;15.70;99.90;;;;;;5056543;28;20059;-79
2021/05/17 04:46:10;;;;;;;10.63;9.63;;;15.80;99.90;;;;;;5055958;28;20025;-86
2021/05/17 04:48:48;;;;;;;11.10;8.82;;;15.80;99.90;;;;;;5070926;28;20032;-87
2021/05/17 04:51:14;;;;;;;10.65;9.55;;;15.90;99.90;;;;;;5058634;28;20058;-82
2021/05/17 04:53:40;;;;;;;10.20;9.20;;;15.90;99.90;;;;;;5058594;28;20378;-86
2021/05/17 04:56:05;;;;;;;13.70;10.48;;;15.90;99.90;;;;;;5076338;28;20094;-77
2021/05/17 04:58:32;;;;;;;11.63;10.40;;;16.00;99.90;;;;;;5076299;28;20051;-77
2021/05/17 05:00:58;;;;;;;11.48;10.38;;;16.00;99.90;;;;;;5058730;28;20462;-78
2021/05/17 05:03:23;;;;;;;14.40;10.80;;;16.00;99.90;;;;;;5075606;28;20063;-78
2021/05/17 05:05:49;;;;;;;12.15;10.95;;;16.10;99.90;;;;;;5067709;28;20028;-84
2021/05/17 05:08:15;;;;;;;12.13;10.00;;;16.10;99.90;;;;;;5076381;28;20036;-82
2021/05/17 05:10:40;;;;;;;11.57;10.25;;;16.20;99.90;;;;;;5076066;28;20975;-83
2021/05/17 05:13:06;;;;;;;11.25;10.25;;;16.30;99.90;;;;;;5058242;28;20024;-78
2021/05/17 05:15:32;;;;;;;11.35;10.25;;;16.30;99.90;;;;;;5058122;28;20077;-79
2021/05/17 05:17:58;;;;;;;10.75;9.75;;;16.40;99.90;;;;;;5074703;28;20128;-78
2021/05/17 05:20:23;;;;;;;11.32;9.60;;;16.40;99.90;;;;;;5058019;28;20036;-80
2021/05/17 05:22:49;;;;;;;10.55;9.45;;;16.40;99.90;;;;;;5076255;28;20098;-78
2021/05/17 05:25:16;;;;;;;10.52;9.18;;;16.40;99.90;;;;;;5057783;28;20075;-80
2021/05/17 05:27:54;;;;;;;9.10;8.20;;;16.50;99.90;;;;;;5057865;28;20020;-80
2021/05/17 05:32:55;;;;;;;9.90;8.85;;;16.60;99.90;;;;;;5075649;28;20494;-78
2021/05/17 05:35:21;;;;;;;11.95;9.35;;;16.60;99.90;;;;;;5075623;28;20016;-80
2021/05/17 05:37:51;;;;;;;11.48;10.27;;;16.70;99.90;;;;;;5075722;28;20118;-78
2021/05/17 05:40:16;;;;;;;10.70;9.60;;;16.80;99.90;;;;;;5058007;28;20470;-82
2021/05/17 05:42:42;;;;;;;9.80;8.70;;;16.90;99.90;;;;;;5056697;28;20044;-82
2021/05/17 05:45:10;;;;;;;11.57;9.70;;;17.00;99.90;;;;;;5075816;28;20035;-86
2021/05/17 05:47:37;;;;;;;11.07;9.38;;;17.10;99.90;;;;;;5057045;28;20078;-83
2021/05/17 05:50:03;;;;;;;10.70;9.60;;;17.10;99.90;;;;;;5075754;28;20485;-81
2021/05/17 05:52:28;;;;;;;10.88;9.82;;;17.20;99.90;;;;;;5057579;28;20428;-75
2021/05/17 05:54:54;;;;;;;11.27;9.20;;;17.20;99.90;;;;;;5075487;28;20073;-86
2021/05/17 05:57:20;;;;;;;9.88;8.88;;;17.20;99.90;;;;;;5057445;28;20116;-87
2021/05/17 05:59:45;;;;;;;9.35;8.45;;;17.10;99.90;;;;;;5057646;28;20047;-89
2021/05/17 06:02:11;;;;;;;11.80;10.60;;;17.20;99.90;;;;;;5056615;28;20032;-86
2021/05/17 06:04:37;;;;;;;14.32;12.25;;;17.30;99.90;;;;;;5057400;28;20037;-78
2021/05/17 06:07:03;;;;;;;10.23;9.23;;;17.30;99.90;;;;;;5075324;28;20024;-79
2021/05/17 06:09:28;;;;;;;14.10;12.48;;;17.30;99.90;;;;;;5056965;28;20044;-77
2021/05/17 06:11:55;;;;;;;10.02;9.00;;;17.30;99.90;;;;;;5074902;28;20466;-81
2021/05/17 06:14:23;;;;;;;11.38;8.65;;;17.30;99.90;;;;;;5075082;28;20020;-80
2021/05/17 06:16:49;;;;;;;10.20;9.20;;;17.30;99.90;;;;;;5073431;28;20059;-85
2021/05/17 06:19:15;;;;;;;11.52;9.95;;;17.20;99.90;;;;;;5056953;28;20104;-80
2021/05/17 06:21:41;;;;;;;11.68;10.27;;;17.20;99.90;;;;;;5074759;28;20031;-84
2021/05/17 06:24:10;;;;;;;13.02;10.93;;;17.10;99.90;;;;;;5074693;28;20059;-75
2021/05/17 06:26:38;;;;;;;11.93;10.73;;;17.10;99.90;;;;;;5056649;28;20024;-83
2021/05/17 06:29:04;;;;;;;13.95;11.13;;;17.20;99.90;;;;;;5074994;28;20020;-82
2021/05/17 06:31:30;;;;;;;12.18;10.90;;;17.20;99.90;;;;;;5073118;28;20024;-85
2021/05/17 06:33:56;;;;;;;12.45;11.15;;;17.40;99.90;;;;;;5074591;28;20114;-88
2021/05/17 06:36:22;;;;;;;10.65;9.55;;;17.40;99.90;;;;;;5055526;28;20020;-84
2021/05/17 06:38:49;;;;;;;11.57;10.10;;;17.60;99.90;;;;;;5056138;28;20034;-84
2021/05/17 06:41:15;;;;;;;10.57;8.98;;;17.60;99.90;;;;;;5074331;28;20466;-86
2021/05/17 06:43:41;;;;;;;12.15;8.73;;;17.80;99.90;;;;;;5074421;28;20091;-86
2021/05/17 06:46:09;;;;;;;10.00;9.02;;;17.90;99.90;;;;;;5055532;28;20509;-83
2021/05/17 06:48:42;;;;;;;9.77;8.88;;;18.00;99.90;;;;;;5074203;28;20374;-82
2021/05/17 06:51:15;;;;;;;11.10;8.90;;;18.10;99.90;;;;;;5055695;28;20449;-85
2021/05/17 06:53:41;;;;;;;8.55;7.68;;;18.20;99.90;;;;;;5074065;28;20087;-83
2021/05/17 06:56:12;;;;;;;9.02;8.13;;;18.30;99.90;;;;;;5056817;28;20024;-85
2021/05/17 06:59:00;;;;;;;9.30;8.40;;;18.30;99.90;;;;;;5056250;28;20029;-85
2021/05/17 07:01:27;;;;;;;8.35;7.55;;;18.40;99.90;;;;;;5054569;28;20036;-85
2021/05/17 07:03:55;;;;;;;9.63;8.55;;;18.40;99.90;;;;;;5074088;28;20031;-83
2021/05/17 07:06:30;;;;;;;9.55;8.65;;;18.50;99.90;;;;;;5074105;28;20491;-82
2021/05/17 07:11:49;;;;;;;10.13;9.13;;;18.60;99.90;;;;;;5074562;28;20378;-84
2021/05/17 07:14:15;;;;;;;10.88;9.40;;;18.60;99.90;;;;;;5055669;28;20027;-81
2021/05/17 07:16:41;;;;;;;10.25;8.68;;;18.60;99.90;;;;;;5073115;28;20032;-83
2021/05/17 07:19:07;;;;;;;9.20;8.10;;;18.60;99.90;;;;;;5074211;28;20021;-83
2021/05/17 07:24:22;;;;;;;9.95;8.30;;;18.60;99.90;;;;;;5074085;28;20165;-82
2021/05/17 07:26:48;;;;;;;12.90;8.30;;;18.50;99.90;;;;;;5055593;28;20024;-81
2021/05/17 07:29:15;;;;;;;10.30;8.23;;;18.40;99.90;;;;;;5054484;28;20109;-82
2021/05/17 07:31:41;;;;;;;11.23;8.63;;;18.30;99.90;;;;;;5073900;28;20020;-83
2021/05/17 07:34:06;;;;;;;9.75;8.07;;;18.20;99.90;;;;;;5073724;28;20093;-81
2021/05/17 07:36:32;;;;;;;10.38;8.70;;;18.10;99.90;;;;;;5055631;28;20024;-83
2021/05/17 07:38:58;;;;;;;9.85;8.85;;;18.00;99.90;;;;;;5073768;28;20034;-80
2021/05/17 07:41:24;;;;;;;10.45;9.35;;;17.90;99.90;;;;;;5055625;28;20024;-82
2021/05/17 07:43:49;;;;;;;9.00;8.00;;;17.90;99.90;;;;;;5054999;28;20028;-82
2021/05/17 07:46:15;;;;;;;9.32;7.60;;;17.80;99.90;;;;;;5073426;28;20029;-81
2021/05/17 07:51:25;;;;;;;9.05;7.40;;;17.70;99.90;;;;;;5073857;28;20393;-82
2021/05/17 07:53:51;;;;;;;8.55;7.75;;;17.70;99.90;;;;;;5055650;28;20112;-81
2021/05/17 07:56:17;;;;;;;8.27;7.20;;;17.60;99.90;;;;;;5055505;28;20481;-80
2021/05/17 07:58:43;;;;;;;9.23;6.78;;;17.60;99.90;;;;;;5054637;28;20028;-78
2021/05/17 08:01:11;;;;;;;11.02;7.03;;;17.60;99.90;;;;;;5033496;28;20036;-78
2021/05/17 08:03:39;;;;;;;9.90;8.70;;;17.60;99.90;;;;;;5034988;28;20028;-78
2021/05/17 08:06:07;;;;;;;10.52;8.77;;;17.50;99.90;;;;;;5074766;28;20029;-78
2021/05/17 08:08:33;;;;;;;21.35;10.52;;;17.50;99.90;;;;;;5077363;28;20028;-84
2021/05/17 08:11:00;;;;;;;12.55;9.45;;;17.40;99.90;;;;;;5059524;28;20024;-83
2021/05/17 08:13:26;;;;;;;10.90;9.63;;;17.20;99.90;;;;;;5076173;28;20013;-88
2021/05/17 08:15:52;;;;;;;13.77;12.00;;;17.10;99.90;;;;;;5077026;28;20151;-79
2021/05/17 08:18:17;;;;;;;19.42;13.73;;;16.90;99.90;;;;;;5077216;28;20062;-91
2021/05/17 08:20:43;;;;;;;14.63;11.63;;;16.70;99.90;;;;;;5059394;28;20465;-79
2021/05/17 08:23:13;;;;;;;18.77;13.68;;;16.60;99.90;;;;;;5077337;28;20032;-81
2021/05/17 08:25:39;;;;;;;13.88;12.40;;;16.50;99.90;;;;;;5059248;28;20029;-79
2021/05/17 08:28:05;;;;;;;13.40;11.98;;;16.40;99.90;;;;;;5058329;28;20115;-85
2021/05/17 08:30:38;;;;;;;13.93;12.43;;;16.30;99.90;;;;;;5058064;28;20112;-85
2021/05/17 08:33:04;;;;;;;17.02;14.15;;;16.20;99.90;;;;;;5058970;28;20059;-80
2021/05/17 08:35:29;;;;;;;16.88;15.10;;;16.20;99.90;;;;;;5076605;28;20024;-79
2021/05/17 08:37:55;;;;;;;14.32;12.85;;;16.20;99.90;;;;;;5076871;28;20070;-78
2021/05/17 08:40:21;;;;;;;16.23;14.52;;;16.20;99.90;;;;;;5076792;28;20377;-83
2021/05/17 08:42:47;;;;;;;17.30;14.40;;;16.10;99.90;;;;;;5076086;28;20436;-80
2021/05/17 08:45:14;;;;;;;17.60;14.68;;;16.20;99.90;;;;;;5075678;28;20054;-83
2021/05/17 08:47:41;;;;;;;15.63;13.95;;;16.10;99.90;;;;;;5076982;28;20046;-82
2021/05/17 08:50:07;;;;;;;16.17;14.48;;;16.20;99.90;;;;;;5076632;28;20112;-84
2021/05/17 08:52:33;;;;;;;16.33;14.60;;;16.30;99.90;;;;;;5076556;28;20017;-80
2021/05/17 08:54:59;;;;;;;20.27;17.20;;;16.30;99.90;;;;;;5058830;28;20025;-84
2021/05/17 08:57:24;;;;;;;19.48;16.75;;;16.40;99.90;;;;;;5058622;28;20035;-85
2021/05/17 08:59:51;;;;;;;20.00;16.58;;;16.50;99.90;;;;;;5067148;28;20032;-84
2021/05/17 09:02:19;;;;;;;20.98;18.65;;;16.60;99.90;;;;;;5076802;28;20382;-85
2021/05/17 09:05:26;;;;;;;19.85;17.48;;;16.70;99.90;;;;;;5058483;28;20473;-85
2021/05/17 09:07:58;;;;;;;21.50;19.13;;;16.80;99.90;;;;;;5076462;28;20029;-85
2021/05/17 09:10:34;;;;;;;23.02;19.27;;;16.90;99.90;;;;;;5058490;28;20048;-85
2021/05/17 09:13:07;;;;;;;25.23;20.85;;;17.00;99.90;;;;;;5056917;28;20543;-83
2021/05/17 09:15:34;;;;;;;27.58;23.83;;;17.30;99.90;;;;;;5076061;28;20469;-84
2021/05/17 09:18:03;;;;;;;26.50;22.55;;;17.40;99.90;;;;;;5074648;28;20021;-84
2021/05/17 09:20:40;;;;;;;19.30;17.13;;;17.50;99.90;;;;;;5058104;28;20024;-85
2021/05/17 09:23:11;;;;;;;19.23;15.77;;;17.50;99.90;;;;;;5058134;28;20024;-84
2021/05/17 09:25:38;;;;;;;18.27;15.32;;;17.60;99.90;;;;;;5058191;28;20028;-82
2021/05/17 09:28:07;;;;;;;16.88;15.10;;;17.70;99.90;;;;;;5057105;28;20021;-84
2021/05/17 09:30:49;;;;;;;18.20;15.38;;;17.80;99.90;;;;;;5058006;28;20021;-89
2021/05/17 09:33:17;;;;;;;18.35;16.33;;;18.00;99.90;;;;;;5057779;28;20112;-84
2021/05/17 09:35:47;;;;;;;18.98;15.38;;;18.10;99.90;;;;;;5058461;28;20469;-84
2021/05/17 09:38:24;;;;;;;18.40;15.93;;;18.20;99.90;;;;;;5075878;28;20496;-84
2021/05/17 09:41:07;;;;;;;16.25;14.57;;;18.30;99.90;;;;;;5057782;28;20486;-84
2021/05/17 09:43:34;;;;;;;14.77;13.27;;;18.40;99.90;;;;;;5074968;28;20024;-86
2021/05/17 09:46:00;;;;;;;18.58;15.38;;;18.50;99.90;;;;;;5075540;28;20466;-84
2021/05/17 09:48:29;;;;;;;18.20;16.30;;;18.60;99.90;;;;;;5075665;28;20053;-83
2021/05/17 09:51:07;;;;;;;17.92;16.02;;;18.70;99.90;;;;;;5057615;28;20025;-83
2021/05/17 09:53:37;;;;;;;16.30;14.57;;;18.60;99.90;;;;;;5075597;28;20024;-86
2021/05/17 09:56:33;;;;;;;17.20;15.45;;;18.70;99.90;;;;;;5075416;28;20414;-83
2021/05/17 09:59:02;;;;;;;17.88;15.98;;;18.80;99.90;;;;;;5070061;28;20036;-82
2021/05/17 10:01:29;;;;;;;13.23;11.98;;;18.90;99.90;;;;;;5057254;28;20029;-81
2021/05/17 10:04:01;;;;;;;13.55;12.23;;;19.00;99.90;;;;;;5075504;28;20083;-82
2021/05/17 10:06:27;;;;;;;15.23;13.73;;;19.10;99.90;;;;;;5057175;28;20533;-83
2021/05/17 10:08:54;;;;;;;15.95;14.43;;;19.30;99.90;;;;;;5075082;28;20072;-82
2021/05/17 10:11:22;;;;;;;14.15;12.57;;;19.50;99.90;;;;;;5056560;28;20027;-82
2021/05/17 10:13:48;;;;;;;18.10;16.25;;;19.50;99.90;;;;;;5075110;28;20025;-80
2021/05/17 10:16:16;;;;;;;19.40;15.77;;;19.60;99.90;;;;;;5075004;28;20131;-81
2021/05/17 10:18:43;;;;;;;14.73;13.23;;;19.60;99.90;;;;;;5075090;28;20040;-82
2021/05/17 10:21:12;;;;;;;14.13;12.55;;;19.50;99.90;;;;;;5075007;28;20090;-81
2021/05/17 10:23:41;;;;;;;16.42;14.07;;;19.40;99.90;;;;;;5056953;28;20458;-82
2021/05/17 10:26:06;;;;;;;16.35;14.75;;;19.30;99.90;;;;;;5055539;28;20029;-81
2021/05/17 10:28:33;;;;;;;15.90;14.15;;;19.20;99.90;;;;;;5074206;28;20021;-85
2021/05/17 10:31:11;;;;;;;17.15;15.38;;;19.20;99.90;;;;;;5074746;28;20024;-82
2021/05/17 10:33:37;;;;;;;17.98;16.17;;;19.20;99.90;;;;;;5056682;28;20051;-82
2021/05/17 10:36:05;;;;;;;20.55;18.50;;;19.20;99.90;;;;;;5074761;28;20541;-90
2021/05/17 10:46:35;;;;;;;15.52;14.00;;;19.60;99.90;;;;;;5074436;28;20040;-83
2021/05/17 10:46:55;;;;;;;17.35;14.23;;;19.80;99.90;;;;;;5063501;28;20351;-82
2021/05/17 10:49:31;;;;;;;12.95;11.65;;;20.00;99.90;;;;;;5074403;28;20028;-82
2021/05/17 10:52:17;;;;;;;16.10;14.57;;;20.10;99.90;;;;;;5056368;28;20021;-83
2021/05/17 10:54:47;;;;;;;16.80;14.80;;;20.20;99.90;;;;;;5042861;28;20059;-84
2021/05/17 10:57:16;;;;;;;;;;;20.30;99.90;;;;;;5074091;28;20381;-84
2021/05/17 11:02:34;;;;;;;12.32;11.18;;;20.30;99.90;;;;;;5074687;28;20043;-85
2021/05/17 11:05:18;;;;;;;13.32;12.13;;;20.40;99.90;;;;;;5073618;28;20127;-83
2021/05/17 11:07:49;;;;;;;12.90;11.68;;;20.50;99.90;;;;;;5074238;28;20045;-85
2021/05/17 11:10:19;;;;;;;11.65;10.45;;;20.50;99.90;;;;;;5056075;28;20048;-81
2021/05/17 11:12:48;;;;;;;11.60;10.48;;;20.50;99.90;;;;;;5055873;28;20052;-81
2021/05/17 11:15:16;;;;;;;10.85;9.93;;;20.60;99.90;;;;;;5056251;28;20532;-82
2021/05/17 11:18:00;;;;;;;9.45;8.55;;;20.60;99.90;;;;;;5073113;28;20029;-86
2021/05/17 11:20:50;;;;;;;10.15;9.10;;;20.80;99.90;;;;;;5056835;28;20028;-82
2021/05/17 11:23:25;;;;;;;10.32;9.23;;;20.90;99.90;;;;;;5074127;28;20021;-85
2021/05/17 11:28:34;;;;;;;12.45;11.25;;;21.10;99.90;;;;;;5074391;28;20512;-79
2021/05/17 11:31:23;;;;;;;14.02;12.60;;;21.10;99.90;;;;;;5054269;28;20021;-82
2021/05/17 11:34:07;;;;;;;12.90;11.70;;;21.00;99.90;;;;;;5055832;28;20486;-77
2021/05/17 11:36:33;;;;;;;13.43;12.05;;;21.00;99.90;;;;;;5044584;28;20386;-81
2021/05/17 11:39:23;;;;;;;12.75;11.43;;;20.90;99.90;;;;;;5073554;28;20032;-77
2021/05/17 11:41:57;;;;;;;12.95;11.55;;;20.90;99.90;;;;;;5072862;28;20036;-80
2021/05/17 11:44:30;;;;;;;15.13;11.65;;;20.90;99.90;;;;;;5055388;28;20469;-78
2021/05/17 11:46:58;;;;;;;13.77;12.48;;;20.90;99.90;;;;;;5055761;28;20052;-79
2021/05/17 11:49:26;;;;;;;12.00;10.70;;;20.80;99.90;;;;;;5073574;28;20510;-79
2021/05/17 11:51:57;;;;;;;12.23;11.13;;;20.70;99.90;;;;;;5055580;28;20028;-79
2021/05/17 11:54:26;;;;;;;12.82;11.20;;;20.70;99.90;;;;;;5055653;28;20020;-79
2021/05/17 11:56:57;;;;;;;15.88;12.65;;;20.70;99.90;;;;;;5073709;28;20422;-80
2021/05/17 11:59:25;;;;;;;14.18;12.75;;;20.60;99.90;;;;;;5055699;28;20028;-81
2021/05/17 12:01:56;;;;;;;16.52;14.82;;;20.50;99.90;;;;;;5035488;28;20223;-80
2021/05/17 12:04:42;;;;;;;18.40;16.55;;;20.40;99.90;;;;;;5035510;28;20131;-79
2021/05/17 12:07:13;;;;;;;16.75;14.95;;;20.30;99.90;;;;;;5035284;28;20029;-84
2021/05/17 12:09:39;;;;;;;16.67;15.00;;;20.20;99.90;;;;;;5035373;28;20124;-81
2021/05/17 12:12:17;;;;;;;17.95;14.57;;;20.20;99.90;;;;;;5035525;28;20164;-81
2021/05/17 12:14:48;;;;;;;16.30;14.60;;;20.40;99.90;;;;;;5035220;28;20021;-80
2021/05/17 12:17:18;;;;;;;16.23;14.73;;;20.60;99.90;;;;;;5053289;28;20025;-79
2021/05/17 12:19:49;;;;;;;17.63;14.75;;;20.90;99.90;;;;;;5053299;28;20025;-82
2021/05/17 12:22:19;;;;;;;14.93;13.30;;;21.00;99.90;;;;;;5034952;28;20021;-80
2021/05/17 12:24:45;;;;;;;13.32;12.13;;;21.40;99.90;;;;;;5035234;28;20141;-81
2021/05/17 12:27:13;;;;;;;13.40;12.10;;;21.60;99.90;;;;;;5053118;28;20573;-82
2021/05/17 12:30:08;;;;;;;13.35;12.15;;;21.60;99.90;;;;;;5053086;28;20021;-80
2021/05/17 12:32:37;;;;;;;12.98;11.77;;;21.60;99.90;;;;;;5026538;28;20048;-81
2021/05/17 12:35:11;;;;;;;14.65;13.23;;;21.60;99.90;;;;;;5053198;28;20048;-80
2021/05/17 12:37:46;;;;;;;11.85;10.25;;;21.70;99.90;;;;;;5053099;28;20435;-80
2021/05/17 12:40:33;;;;;;;10.55;9.52;;;22.10;99.90;;;;;;5035105;28;20033;-82
2021/05/17 12:43:18;;;;;;;9.40;8.52;;;22.40;99.90;;;;;;5035136;28;20088;-81
2021/05/17 12:45:59;;;;;;;10.18;9.10;;;22.40;99.90;;;;;;5035011;28;20051;-81
2021/05/17 12:48:43;;;;;;;9.98;8.98;;;22.20;99.90;;;;;;5035113;28;20021;-80
2021/05/17 12:51:23;;;;;;;9.00;8.20;;;22.00;99.90;;;;;;5035064;28;20017;-81
2021/05/17 12:53:51;;;;;;;10.18;9.27;;;22.00;99.90;;;;;;5038787;28;20017;-81
2021/05/17 12:56:28;;;;;;;10.05;9.15;;;22.10;99.90;;;;;;5056550;28;20108;-81
2021/05/17 12:58:54;;;;;;;8.43;7.68;;;22.70;99.90;;;;;;5056428;28;20076;-82
2021/05/17 13:01:21;;;;;;;8.98;8.18;;;23.00;99.90;;;;;;5038630;28;20025;-80
2021/05/17 13:03:52;;;;;;;8.15;7.38;;;23.10;99.90;;;;;;5056357;28;20088;-88
2021/05/17 13:06:24;;;;;;;8.43;7.65;;;23.10;99.90;;;;;;5038253;28;20140;-82
2021/05/17 13:08:58;;;;;;;8.52;7.60;;;23.10;99.90;;;;;;5054322;28;20048;-81
2021/05/17 13:11:33;;;;;;;8.43;7.63;;;23.00;99.90;;;;;;5018477;28;20487;-80
2021/05/17 13:14:13;;;;;;;8.73;7.75;;;22.90;99.90;;;;;;5018489;28;20022;-80
2021/05/17 13:16:41;;;;;;;7.70;6.97;;;22.80;99.90;;;;;;5036009;28;20033;-80
2021/05/17 13:24:52;;;;;;;8.40;7.60;;;22.70;99.90;;;;;;5036011;28;20386;-82